sensor_id;sensor_type;location;lat;lon;timestamp;P1;durP1;ratioP1;P2;durP2;ratioP2
23358;SDS011;11851;50.796;4.372;2022-08-04T00:07:04;4.90;;;2.40;;
23358;SDS011;11851;50.796;4.372;2022-08-04T00:12:09;5.85;;;2.30;;
23358;SDS011;11851;50.796;4.372;2022-08-04T00:14:37;13.73;;;2.60;;
23358;SDS011;11851;50.796;4.372;2022-08-04T00:17:10;6.82;;;2.47;;
23358;SDS011;11851;50.796;4.372;2022-08-04T00:19:40;6.68;;;2.72;;
23358;SDS011;11851;50.796;4.372;2022-08-04T00:22:09;8.10;;;2.72;;
23358;SDS011;11851;50.796;4.372;2022-08-04T00:24:36;4.90;;;2.30;;
23358;SDS011;11851;50.796;4.372;2022-08-04T00:27:02;7.85;;;3.00;;
23358;SDS011;11851;50.796;4.372;2022-08-04T00:29:28;8.32;;;3.05;;
23358;SDS011;11851;50.796;4.372;2022-08-04T00:31:55;6.47;;;2.50;;
23358;SDS011;11851;50.796;4.372;2022-08-04T00:34:25;4.55;;;2.10;;
23358;SDS011;11851;50.796;4.372;2022-08-04T00:36:52;6.70;;;2.50;;
23358;SDS011;11851;50.796;4.372;2022-08-04T00:39:19;8.73;;;2.95;;
23358;SDS011;11851;50.796;4.372;2022-08-04T00:44:15;6.97;;;2.60;;
23358;SDS011;11851;50.796;4.372;2022-08-04T00:47:17;6.40;;;2.20;;
23358;SDS011;11851;50.796;4.372;2022-08-04T00:50:09;5.47;;;2.35;;
23358;SDS011;11851;50.796;4.372;2022-08-04T00:52:55;5.95;;;2.55;;
23358;SDS011;11851;50.796;4.372;2022-08-04T01:08:45;6.97;;;2.78;;
23358;SDS011;11851;50.796;4.372;2022-08-04T01:24:58;8.35;;;2.78;;
23358;SDS011;11851;50.796;4.372;2022-08-04T01:30:25;6.95;;;2.50;;
23358;SDS011;11851;50.796;4.372;2022-08-04T01:32:52;6.88;;;3.20;;
23358;SDS011;11851;50.796;4.372;2022-08-04T01:35:34;7.80;;;2.80;;
23358;SDS011;11851;50.796;4.372;2022-08-04T01:40:34;8.38;;;2.85;;
23358;SDS011;11851;50.796;4.372;2022-08-04T01:43:02;7.63;;;2.70;;
23358;SDS011;11851;50.796;4.372;2022-08-04T01:45:29;7.40;;;2.67;;
23358;SDS011;11851;50.796;4.372;2022-08-04T01:47:55;5.50;;;2.50;;
23358;SDS011;11851;50.796;4.372;2022-08-04T01:50:22;7.35;;;2.60;;
23358;SDS011;11851;50.796;4.372;2022-08-04T01:52:52;7.03;;;2.60;;
23358;SDS011;11851;50.796;4.372;2022-08-04T01:55:19;9.57;;;2.97;;
23358;SDS011;11851;50.796;4.372;2022-08-04T01:57:46;5.15;;;2.60;;
23358;SDS011;11851;50.796;4.372;2022-08-04T02:00:21;7.82;;;2.50;;
23358;SDS011;11851;50.796;4.372;2022-08-04T02:02:48;9.38;;;2.90;;
23358;SDS011;11851;50.796;4.372;2022-08-04T02:05:16;6.88;;;2.30;;
23358;SDS011;11851;50.796;4.372;2022-08-04T02:07:49;4.22;;;2.45;;
23358;SDS011;11851;50.796;4.372;2022-08-04T02:15:28;4.85;;;2.38;;
23358;SDS011;11851;50.796;4.372;2022-08-04T02:20:47;5.60;;;2.70;;
23358;SDS011;11851;50.796;4.372;2022-08-04T02:26:10;3.80;;;2.10;;
23358;SDS011;11851;50.796;4.372;2022-08-04T02:28:49;7.78;;;2.50;;
23358;SDS011;11851;50.796;4.372;2022-08-04T02:34:44;7.95;;;2.45;;
23358;SDS011;11851;50.796;4.372;2022-08-04T02:37:00;6.90;;;2.47;;
23358;SDS011;11851;50.796;4.372;2022-08-04T02:39:30;3.90;;;2.13;;
23358;SDS011;11851;50.796;4.372;2022-08-04T02:41:58;7.53;;;2.50;;
23358;SDS011;11851;50.796;4.372;2022-08-04T02:44:27;5.75;;;2.47;;
23358;SDS011;11851;50.796;4.372;2022-08-04T02:46:54;12.55;;;2.88;;
23358;SDS011;11851;50.796;4.372;2022-08-04T02:49:21;5.55;;;2.33;;
23358;SDS011;11851;50.796;4.372;2022-08-04T02:51:51;5.55;;;2.55;;
23358;SDS011;11851;50.796;4.372;2022-08-04T02:54:19;7.38;;;2.63;;
23358;SDS011;11851;50.796;4.372;2022-08-04T02:56:52;6.03;;;1.92;;
23358;SDS011;11851;50.796;4.372;2022-08-04T02:59:22;9.00;;;2.90;;
23358;SDS011;11851;50.796;4.372;2022-08-04T03:01:51;5.25;;;2.38;;
23358;SDS011;11851;50.796;4.372;2022-08-04T03:04:26;4.70;;;2.42;;
23358;SDS011;11851;50.796;4.372;2022-08-04T03:27:09;4.35;;;2.65;;
23358;SDS011;11851;50.796;4.372;2022-08-04T03:46:23;5.03;;;2.78;;
23358;SDS011;11851;50.796;4.372;2022-08-04T03:49:24;7.17;;;2.80;;
23358;SDS011;11851;50.796;4.372;2022-08-04T04:01:09;6.22;;;2.53;;
23358;SDS011;11851;50.796;4.372;2022-08-04T04:11:57;9.07;;;3.00;;
23358;SDS011;11851;50.796;4.372;2022-08-04T04:34:15;5.72;;;2.75;;
23358;SDS011;11851;50.796;4.372;2022-08-04T04:37:00;7.90;;;3.30;;
23358;SDS011;11851;50.796;4.372;2022-08-04T04:39:38;8.57;;;3.25;;
23358;SDS011;11851;50.796;4.372;2022-08-04T04:50:16;13.48;;;3.40;;
23358;SDS011;11851;50.796;4.372;2022-08-04T04:52:53;8.80;;;3.25;;
23358;SDS011;11851;50.796;4.372;2022-08-04T04:55:27;8.18;;;3.10;;
23358;SDS011;11851;50.796;4.372;2022-08-04T04:57:59;10.55;;;3.15;;
23358;SDS011;11851;50.796;4.372;2022-08-04T05:14:38;10.45;;;3.28;;
23358;SDS011;11851;50.796;4.372;2022-08-04T05:22:44;6.53;;;2.70;;
23358;SDS011;11851;50.796;4.372;2022-08-04T05:30:29;10.60;;;3.53;;
23358;SDS011;11851;50.796;4.372;2022-08-04T05:33:02;11.77;;;3.90;;
23358;SDS011;11851;50.796;4.372;2022-08-04T05:35:44;20.13;;;4.38;;
23358;SDS011;11851;50.796;4.372;2022-08-04T05:38:13;12.60;;;4.28;;
23358;SDS011;11851;50.796;4.372;2022-08-04T05:40:42;12.63;;;4.03;;
23358;SDS011;11851;50.796;4.372;2022-08-04T05:43:08;13.13;;;4.32;;
23358;SDS011;11851;50.796;4.372;2022-08-04T05:45:35;15.48;;;3.72;;
23358;SDS011;11851;50.796;4.372;2022-08-04T05:48:01;17.17;;;4.85;;
23358;SDS011;11851;50.796;4.372;2022-08-04T05:50:29;18.45;;;4.35;;
23358;SDS011;11851;50.796;4.372;2022-08-04T05:52:56;17.65;;;4.25;;
23358;SDS011;11851;50.796;4.372;2022-08-04T05:55:24;19.05;;;4.20;;
23358;SDS011;11851;50.796;4.372;2022-08-04T05:57:51;14.38;;;4.20;;
23358;SDS011;11851;50.796;4.372;2022-08-04T06:00:18;13.07;;;4.07;;
23358;SDS011;11851;50.796;4.372;2022-08-04T06:02:45;20.08;;;4.82;;
23358;SDS011;11851;50.796;4.372;2022-08-04T06:05:13;19.85;;;4.35;;
23358;SDS011;11851;50.796;4.372;2022-08-04T06:07:41;17.42;;;4.85;;
23358;SDS011;11851;50.796;4.372;2022-08-04T06:10:08;19.70;;;4.95;;
23358;SDS011;11851;50.796;4.372;2022-08-04T06:12:38;16.20;;;5.53;;
23358;SDS011;11851;50.796;4.372;2022-08-04T06:15:13;17.88;;;5.88;;
23358;SDS011;11851;50.796;4.372;2022-08-04T06:17:50;17.67;;;5.00;;
23358;SDS011;11851;50.796;4.372;2022-08-04T06:20:19;15.23;;;5.20;;
23358;SDS011;11851;50.796;4.372;2022-08-04T06:22:49;14.40;;;5.35;;
23358;SDS011;11851;50.796;4.372;2022-08-04T06:25:20;15.38;;;4.82;;
23358;SDS011;11851;50.796;4.372;2022-08-04T06:28:06;11.60;;;4.35;;
23358;SDS011;11851;50.796;4.372;2022-08-04T06:30:32;19.90;;;5.28;;
23358;SDS011;11851;50.796;4.372;2022-08-04T06:33:01;16.10;;;5.07;;
23358;SDS011;11851;50.796;4.372;2022-08-04T06:35:37;15.27;;;4.53;;
23358;SDS011;11851;50.796;4.372;2022-08-04T06:38:04;13.15;;;4.75;;
23358;SDS011;11851;50.796;4.372;2022-08-04T06:40:32;18.27;;;4.28;;
23358;SDS011;11851;50.796;4.372;2022-08-04T06:42:59;17.83;;;5.18;;
23358;SDS011;11851;50.796;4.372;2022-08-04T06:45:26;16.48;;;4.45;;
23358;SDS011;11851;50.796;4.372;2022-08-04T06:47:53;10.05;;;4.05;;
23358;SDS011;11851;50.796;4.372;2022-08-04T06:50:20;9.07;;;3.88;;
23358;SDS011;11851;50.796;4.372;2022-08-04T06:52:46;18.15;;;5.05;;
23358;SDS011;11851;50.796;4.372;2022-08-04T06:55:12;11.88;;;3.40;;
23358;SDS011;11851;50.796;4.372;2022-08-04T06:57:38;11.07;;;4.00;;
23358;SDS011;11851;50.796;4.372;2022-08-04T07:00:09;16.88;;;4.40;;
23358;SDS011;11851;50.796;4.372;2022-08-04T07:02:41;12.10;;;3.85;;
23358;SDS011;11851;50.796;4.372;2022-08-04T07:05:17;11.25;;;3.60;;
23358;SDS011;11851;50.796;4.372;2022-08-04T07:07:44;15.73;;;4.53;;
23358;SDS011;11851;50.796;4.372;2022-08-04T07:10:11;14.07;;;4.00;;
23358;SDS011;11851;50.796;4.372;2022-08-04T07:12:38;12.77;;;3.80;;
23358;SDS011;11851;50.796;4.372;2022-08-04T07:15:05;14.38;;;4.00;;
23358;SDS011;11851;50.796;4.372;2022-08-04T07:17:35;14.38;;;4.22;;
23358;SDS011;11851;50.796;4.372;2022-08-04T07:20:02;15.05;;;4.18;;
23358;SDS011;11851;50.796;4.372;2022-08-04T07:22:29;11.73;;;4.07;;
23358;SDS011;11851;50.796;4.372;2022-08-04T07:24:56;12.30;;;4.43;;
23358;SDS011;11851;50.796;4.372;2022-08-04T07:27:23;11.55;;;4.50;;
23358;SDS011;11851;50.796;4.372;2022-08-04T07:29:49;14.25;;;4.50;;
23358;SDS011;11851;50.796;4.372;2022-08-04T07:32:16;22.80;;;4.53;;
23358;SDS011;11851;50.796;4.372;2022-08-04T07:34:44;16.55;;;4.65;;
23358;SDS011;11851;50.796;4.372;2022-08-04T07:37:12;12.50;;;3.95;;
23358;SDS011;11851;50.796;4.372;2022-08-04T07:39:38;20.20;;;4.55;;
23358;SDS011;11851;50.796;4.372;2022-08-04T07:42:04;13.15;;;4.25;;
23358;SDS011;11851;50.796;4.372;2022-08-04T07:44:30;17.02;;;4.43;;
23358;SDS011;11851;50.796;4.372;2022-08-04T07:46:58;16.50;;;4.43;;
23358;SDS011;11851;50.796;4.372;2022-08-04T07:49:25;14.80;;;3.80;;
23358;SDS011;11851;50.796;4.372;2022-08-04T07:51:51;16.25;;;4.32;;
23358;SDS011;11851;50.796;4.372;2022-08-04T07:54:18;15.52;;;4.25;;
23358;SDS011;11851;50.796;4.372;2022-08-04T07:56:44;11.25;;;3.92;;
23358;SDS011;11851;50.796;4.372;2022-08-04T07:59:13;16.02;;;4.10;;
23358;SDS011;11851;50.796;4.372;2022-08-04T08:01:40;23.13;;;4.78;;
23358;SDS011;11851;50.796;4.372;2022-08-04T08:04:06;15.68;;;4.07;;
23358;SDS011;11851;50.796;4.372;2022-08-04T08:06:37;14.20;;;4.10;;
23358;SDS011;11851;50.796;4.372;2022-08-04T08:11:40;8.80;;;4.20;;
23358;SDS011;11851;50.796;4.372;2022-08-04T08:14:07;12.65;;;4.30;;
23358;SDS011;11851;50.796;4.372;2022-08-04T08:16:34;11.30;;;4.78;;
23358;SDS011;11851;50.796;4.372;2022-08-04T08:19:00;14.32;;;5.63;;
23358;SDS011;11851;50.796;4.372;2022-08-04T08:21:26;18.33;;;5.43;;
23358;SDS011;11851;50.796;4.372;2022-08-04T08:23:52;16.95;;;4.82;;
23358;SDS011;11851;50.796;4.372;2022-08-04T08:26:19;13.70;;;4.90;;
23358;SDS011;11851;50.796;4.372;2022-08-04T08:28:44;19.52;;;5.25;;
23358;SDS011;11851;50.796;4.372;2022-08-04T08:31:11;13.15;;;5.20;;
23358;SDS011;11851;50.796;4.372;2022-08-04T08:33:36;19.33;;;5.10;;
23358;SDS011;11851;50.796;4.372;2022-08-04T08:36:06;12.77;;;5.40;;
23358;SDS011;11851;50.796;4.372;2022-08-04T08:39:02;21.15;;;5.40;;
23358;SDS011;11851;50.796;4.372;2022-08-04T08:50:30;18.70;;;6.05;;
23358;SDS011;11851;50.796;4.372;2022-08-04T09:15:46;16.08;;;6.68;;
23358;SDS011;11851;50.796;4.372;2022-08-04T09:18:33;18.88;;;7.13;;
23358;SDS011;11851;50.796;4.372;2022-08-04T09:29:42;17.63;;;6.65;;
23358;SDS011;11851;50.796;4.372;2022-08-04T09:38:18;16.10;;;6.70;;
23358;SDS011;11851;50.796;4.372;2022-08-04T09:44:00;18.42;;;7.20;;
23358;SDS011;11851;50.796;4.372;2022-08-04T09:46:51;20.88;;;8.32;;
23358;SDS011;11851;50.796;4.372;2022-08-04T09:49:31;19.10;;;8.80;;
23358;SDS011;11851;50.796;4.372;2022-08-04T10:00:22;14.63;;;8.63;;
23358;SDS011;11851;50.796;4.372;2022-08-04T10:02:57;23.75;;;8.10;;
23358;SDS011;11851;50.796;4.372;2022-08-04T10:05:37;19.98;;;8.05;;
23358;SDS011;11851;50.796;4.372;2022-08-04T10:08:17;22.92;;;9.07;;
23358;SDS011;11851;50.796;4.372;2022-08-04T10:13:30;27.52;;;10.05;;
23358;SDS011;11851;50.796;4.372;2022-08-04T10:24:30;31.85;;;12.07;;
23358;SDS011;11851;50.796;4.372;2022-08-04T10:27:15;22.85;;;12.45;;
23358;SDS011;11851;50.796;4.372;2022-08-04T10:29:56;30.55;;;12.50;;
23358;SDS011;11851;50.796;4.372;2022-08-04T10:32:33;26.08;;;12.73;;
23358;SDS011;11851;50.796;4.372;2022-08-04T10:35:07;27.77;;;12.98;;
23358;SDS011;11851;50.796;4.372;2022-08-04T10:37:42;30.45;;;14.95;;
23358;SDS011;11851;50.796;4.372;2022-08-04T10:40:32;28.55;;;13.70;;
23358;SDS011;11851;50.796;4.372;2022-08-04T10:46:06;27.67;;;13.70;;
23358;SDS011;11851;50.796;4.372;2022-08-04T10:48:42;35.97;;;16.25;;
23358;SDS011;11851;50.796;4.372;2022-08-04T10:54:11;30.88;;;15.45;;
23358;SDS011;11851;50.796;4.372;2022-08-04T10:57:17;36.55;;;16.25;;
23358;SDS011;11851;50.796;4.372;2022-08-04T10:59:40;33.47;;;17.55;;
23358;SDS011;11851;50.796;4.372;2022-08-04T11:02:15;37.30;;;16.92;;
23358;SDS011;11851;50.796;4.372;2022-08-04T11:05:04;29.85;;;17.33;;
23358;SDS011;11851;50.796;4.372;2022-08-04T11:07:32;31.08;;;15.02;;
23358;SDS011;11851;50.796;4.372;2022-08-04T11:10:01;25.50;;;13.95;;
23358;SDS011;11851;50.796;4.372;2022-08-04T11:12:27;29.25;;;15.50;;
23358;SDS011;11851;50.796;4.372;2022-08-04T11:15:00;31.30;;;15.63;;
23358;SDS011;11851;50.796;4.372;2022-08-04T11:17:39;32.08;;;16.42;;
23358;SDS011;11851;50.796;4.372;2022-08-04T11:20:12;27.23;;;14.73;;
23358;SDS011;11851;50.796;4.372;2022-08-04T11:23:18;31.95;;;16.80;;
23358;SDS011;11851;50.796;4.372;2022-08-04T11:31:24;26.17;;;14.35;;
23358;SDS011;11851;50.796;4.372;2022-08-04T11:39:14;26.80;;;14.77;;
23358;SDS011;11851;50.796;4.372;2022-08-04T11:50:04;24.40;;;15.65;;
23358;SDS011;11851;50.796;4.372;2022-08-04T11:52:44;28.85;;;15.55;;
23358;SDS011;11851;50.796;4.372;2022-08-04T11:55:13;23.70;;;14.15;;
23358;SDS011;11851;50.796;4.372;2022-08-04T11:57:43;25.70;;;14.93;;
23358;SDS011;11851;50.796;4.372;2022-08-04T12:00:11;22.88;;;15.05;;
23358;SDS011;11851;50.796;4.372;2022-08-04T12:05:17;22.42;;;13.75;;
23358;SDS011;11851;50.796;4.372;2022-08-04T12:10:46;22.05;;;14.32;;
23358;SDS011;11851;50.796;4.372;2022-08-04T12:13:24;22.20;;;13.60;;
23358;SDS011;11851;50.796;4.372;2022-08-04T12:18:28;26.13;;;10.07;;
23358;SDS011;11851;50.796;4.372;2022-08-04T12:21:06;16.10;;;8.48;;
23358;SDS011;11851;50.796;4.372;2022-08-04T12:23:39;16.77;;;7.85;;
23358;SDS011;11851;50.796;4.372;2022-08-04T12:26:08;17.83;;;5.95;;
23358;SDS011;11851;50.796;4.372;2022-08-04T12:28:49;14.60;;;6.65;;
23358;SDS011;11851;50.796;4.372;2022-08-04T12:31:36;15.02;;;6.70;;
23358;SDS011;11851;50.796;4.372;2022-08-04T12:34:16;16.02;;;6.47;;
23358;SDS011;11851;50.796;4.372;2022-08-04T12:36:58;14.38;;;6.70;;
23358;SDS011;11851;50.796;4.372;2022-08-04T12:39:27;16.65;;;5.28;;
23358;SDS011;11851;50.796;4.372;2022-08-04T12:44:35;13.18;;;5.90;;
23358;SDS011;11851;50.796;4.372;2022-08-04T12:47:10;13.55;;;6.75;;
23358;SDS011;11851;50.796;4.372;2022-08-04T12:49:37;14.85;;;7.22;;
23358;SDS011;11851;50.796;4.372;2022-08-04T12:52:09;17.95;;;7.20;;
23358;SDS011;11851;50.796;4.372;2022-08-04T12:57:07;11.93;;;6.00;;
23358;SDS011;11851;50.796;4.372;2022-08-04T12:59:38;19.25;;;6.18;;
23358;SDS011;11851;50.796;4.372;2022-08-04T13:02:10;18.88;;;6.65;;
23358;SDS011;11851;50.796;4.372;2022-08-04T13:04:57;13.55;;;6.55;;
23358;SDS011;11851;50.796;4.372;2022-08-04T13:07:25;15.75;;;7.95;;
23358;SDS011;11851;50.796;4.372;2022-08-04T13:09:52;13.30;;;7.15;;
23358;SDS011;11851;50.796;4.372;2022-08-04T13:12:20;10.93;;;7.47;;
23358;SDS011;11851;50.796;4.372;2022-08-04T13:14:50;24.15;;;6.90;;
23358;SDS011;11851;50.796;4.372;2022-08-04T13:17:22;10.70;;;6.20;;
23358;SDS011;11851;50.796;4.372;2022-08-04T13:19:49;11.07;;;6.45;;
23358;SDS011;11851;50.796;4.372;2022-08-04T13:22:28;13.63;;;6.05;;
23358;SDS011;11851;50.796;4.372;2022-08-04T13:24:56;15.65;;;7.07;;
23358;SDS011;11851;50.796;4.372;2022-08-04T13:27:23;18.50;;;8.43;;
23358;SDS011;11851;50.796;4.372;2022-08-04T13:29:50;12.43;;;8.05;;
23358;SDS011;11851;50.796;4.372;2022-08-04T13:32:20;11.80;;;6.50;;
23358;SDS011;11851;50.796;4.372;2022-08-04T13:34:48;16.15;;;5.68;;
23358;SDS011;11851;50.796;4.372;2022-08-04T13:37:16;12.32;;;5.63;;
23358;SDS011;11851;50.796;4.372;2022-08-04T13:39:44;12.63;;;4.90;;
23358;SDS011;11851;50.796;4.372;2022-08-04T13:42:12;15.77;;;6.68;;
23358;SDS011;11851;50.796;4.372;2022-08-04T13:44:39;19.02;;;7.30;;
23358;SDS011;11851;50.796;4.372;2022-08-04T13:47:13;10.13;;;5.25;;
23358;SDS011;11851;50.796;4.372;2022-08-04T13:50:05;9.20;;;4.68;;
23358;SDS011;11851;50.796;4.372;2022-08-04T13:52:30;8.73;;;4.55;;
23358;SDS011;11851;50.796;4.372;2022-08-04T13:54:57;9.85;;;4.60;;
23358;SDS011;11851;50.796;4.372;2022-08-04T13:57:26;13.57;;;4.80;;
23358;SDS011;11851;50.796;4.372;2022-08-04T14:00:01;8.20;;;4.72;;
23358;SDS011;11851;50.796;4.372;2022-08-04T14:02:33;10.68;;;4.30;;
23358;SDS011;11851;50.796;4.372;2022-08-04T14:05:00;6.22;;;4.45;;
23358;SDS011;11851;50.796;4.372;2022-08-04T14:07:37;9.18;;;4.30;;
23358;SDS011;11851;50.796;4.372;2022-08-04T14:10:14;11.75;;;5.28;;
23358;SDS011;11851;50.796;4.372;2022-08-04T14:12:44;10.13;;;4.30;;
23358;SDS011;11851;50.796;4.372;2022-08-04T14:20:58;9.55;;;4.88;;
23358;SDS011;11851;50.796;4.372;2022-08-04T14:24:03;9.52;;;3.75;;
23358;SDS011;11851;50.796;4.372;2022-08-04T14:28:49;6.60;;;3.88;;
23358;SDS011;11851;50.796;4.372;2022-08-04T14:31:21;5.63;;;3.10;;
23358;SDS011;11851;50.796;4.372;2022-08-04T14:33:48;7.20;;;3.28;;
23358;SDS011;11851;50.796;4.372;2022-08-04T14:36:15;4.57;;;2.40;;
23358;SDS011;11851;50.796;4.372;2022-08-04T14:38:56;6.88;;;3.08;;
23358;SDS011;11851;50.796;4.372;2022-08-04T14:41:26;11.52;;;3.80;;
23358;SDS011;11851;50.796;4.372;2022-08-04T14:43:54;8.43;;;3.72;;
23358;SDS011;11851;50.796;4.372;2022-08-04T14:46:22;7.35;;;3.42;;
23358;SDS011;11851;50.796;4.372;2022-08-04T14:48:59;9.63;;;3.55;;
23358;SDS011;11851;50.796;4.372;2022-08-04T14:51:25;6.40;;;4.18;;
23358;SDS011;11851;50.796;4.372;2022-08-04T14:53:51;11.38;;;3.47;;
23358;SDS011;11851;50.796;4.372;2022-08-04T14:56:18;8.13;;;3.38;;
23358;SDS011;11851;50.796;4.372;2022-08-04T14:58:44;6.25;;;3.92;;
23358;SDS011;11851;50.796;4.372;2022-08-04T15:01:10;11.88;;;4.50;;
23358;SDS011;11851;50.796;4.372;2022-08-04T15:03:39;8.38;;;3.28;;
23358;SDS011;11851;50.796;4.372;2022-08-04T15:06:07;5.72;;;3.63;;
23358;SDS011;11851;50.796;4.372;2022-08-04T15:08:34;9.60;;;3.80;;
23358;SDS011;11851;50.796;4.372;2022-08-04T15:11:00;6.93;;;3.95;;
23358;SDS011;11851;50.796;4.372;2022-08-04T15:13:27;9.45;;;3.30;;
23358;SDS011;11851;50.796;4.372;2022-08-04T15:15:56;8.02;;;4.30;;
23358;SDS011;11851;50.796;4.372;2022-08-04T15:18:22;9.68;;;3.95;;
23358;SDS011;11851;50.796;4.372;2022-08-04T15:20:49;8.40;;;3.92;;
23358;SDS011;11851;50.796;4.372;2022-08-04T15:23:16;7.63;;;4.60;;
23358;SDS011;11851;50.796;4.372;2022-08-04T15:25:43;7.70;;;3.53;;
23358;SDS011;11851;50.796;4.372;2022-08-04T15:28:15;7.13;;;4.10;;
23358;SDS011;11851;50.796;4.372;2022-08-04T15:33:12;9.73;;;3.53;;
23358;SDS011;11851;50.796;4.372;2022-08-04T15:35:42;7.93;;;3.40;;
23358;SDS011;11851;50.796;4.372;2022-08-04T15:38:14;7.68;;;2.78;;
23358;SDS011;11851;50.796;4.372;2022-08-04T15:46:21;10.80;;;3.13;;
23358;SDS011;11851;50.796;4.372;2022-08-04T15:49:19;8.02;;;3.30;;
23358;SDS011;11851;50.796;4.372;2022-08-04T15:52:03;8.00;;;3.10;;
23358;SDS011;11851;50.796;4.372;2022-08-04T15:54:30;12.95;;;3.30;;
23358;SDS011;11851;50.796;4.372;2022-08-04T15:56:56;8.77;;;2.45;;
23358;SDS011;11851;50.796;4.372;2022-08-04T16:02:27;9.57;;;3.30;;
23358;SDS011;11851;50.796;4.372;2022-08-04T16:10:34;9.13;;;2.70;;
23358;SDS011;11851;50.796;4.372;2022-08-04T16:15:36;5.50;;;2.60;;
23358;SDS011;11851;50.796;4.372;2022-08-04T16:18:39;9.15;;;3.10;;
23358;SDS011;11851;50.796;4.372;2022-08-04T16:21:05;8.40;;;2.80;;
23358;SDS011;11851;50.796;4.372;2022-08-04T16:26:58;7.22;;;2.70;;
23358;SDS011;11851;50.796;4.372;2022-08-04T16:42:56;5.70;;;2.55;;
23358;SDS011;11851;50.796;4.372;2022-08-04T16:45:23;7.25;;;2.30;;
23358;SDS011;11851;50.796;4.372;2022-08-04T16:48:07;12.93;;;2.67;;
23358;SDS011;11851;50.796;4.372;2022-08-04T16:50:44;7.03;;;3.20;;
23358;SDS011;11851;50.796;4.372;2022-08-04T16:53:11;7.18;;;2.92;;
23358;SDS011;11851;50.796;4.372;2022-08-04T16:55:38;6.22;;;2.28;;
23358;SDS011;11851;50.796;4.372;2022-08-04T16:58:09;11.43;;;2.30;;
23358;SDS011;11851;50.796;4.372;2022-08-04T17:00:36;6.95;;;2.70;;
23358;SDS011;11851;50.796;4.372;2022-08-04T17:03:03;17.85;;;3.70;;
23358;SDS011;11851;50.796;4.372;2022-08-04T17:05:30;5.68;;;2.53;;
23358;SDS011;11851;50.796;4.372;2022-08-04T17:07:57;9.48;;;2.65;;
23358;SDS011;11851;50.796;4.372;2022-08-04T17:10:43;8.00;;;2.78;;
23358;SDS011;11851;50.796;4.372;2022-08-04T17:15:48;10.25;;;2.70;;
23358;SDS011;11851;50.796;4.372;2022-08-04T17:18:19;8.73;;;2.60;;
23358;SDS011;11851;50.796;4.372;2022-08-04T17:20:48;6.13;;;2.22;;
23358;SDS011;11851;50.796;4.372;2022-08-04T17:23:49;7.88;;;2.13;;
23358;SDS011;11851;50.796;4.372;2022-08-04T17:26:17;11.85;;;2.45;;
23358;SDS011;11851;50.796;4.372;2022-08-04T17:28:48;7.00;;;2.63;;
23358;SDS011;11851;50.796;4.372;2022-08-04T17:31:16;8.32;;;2.53;;
23358;SDS011;11851;50.796;4.372;2022-08-04T17:33:46;5.95;;;2.30;;
23358;SDS011;11851;50.796;4.372;2022-08-04T17:36:14;7.00;;;2.67;;
23358;SDS011;11851;50.796;4.372;2022-08-04T17:41:14;8.20;;;2.08;;
23358;SDS011;11851;50.796;4.372;2022-08-04T17:43:47;6.82;;;2.30;;
23358;SDS011;11851;50.796;4.372;2022-08-04T17:57:16;6.45;;;2.30;;
23358;SDS011;11851;50.796;4.372;2022-08-04T17:59:44;7.15;;;2.60;;
23358;SDS011;11851;50.796;4.372;2022-08-04T18:02:12;6.93;;;2.40;;
23358;SDS011;11851;50.796;4.372;2022-08-04T18:07:13;7.47;;;2.47;;
23358;SDS011;11851;50.796;4.372;2022-08-04T18:12:29;6.93;;;2.63;;
23358;SDS011;11851;50.796;4.372;2022-08-04T18:14:57;10.13;;;2.55;;
23358;SDS011;11851;50.796;4.372;2022-08-04T18:20:12;9.27;;;2.67;;
23358;SDS011;11851;50.796;4.372;2022-08-04T18:22:40;11.02;;;2.58;;
23358;SDS011;11851;50.796;4.372;2022-08-04T18:25:07;8.65;;;3.25;;
23358;SDS011;11851;50.796;4.372;2022-08-04T18:27:33;9.82;;;2.70;;
23358;SDS011;11851;50.796;4.372;2022-08-04T18:29:59;7.40;;;2.35;;
23358;SDS011;11851;50.796;4.372;2022-08-04T18:32:26;6.90;;;2.42;;
23358;SDS011;11851;50.796;4.372;2022-08-04T18:34:52;8.75;;;2.65;;
23358;SDS011;11851;50.796;4.372;2022-08-04T18:37:19;14.95;;;2.78;;
23358;SDS011;11851;50.796;4.372;2022-08-04T18:39:45;8.55;;;2.63;;
23358;SDS011;11851;50.796;4.372;2022-08-04T18:42:12;7.50;;;2.30;;
23358;SDS011;11851;50.796;4.372;2022-08-04T18:44:38;9.98;;;2.53;;
23358;SDS011;11851;50.796;4.372;2022-08-04T18:47:03;8.90;;;2.47;;
23358;SDS011;11851;50.796;4.372;2022-08-04T18:49:29;5.15;;;2.17;;
23358;SDS011;11851;50.796;4.372;2022-08-04T18:51:55;7.28;;;2.30;;
23358;SDS011;11851;50.796;4.372;2022-08-04T18:54:22;6.50;;;2.38;;
23358;SDS011;11851;50.796;4.372;2022-08-04T18:56:50;6.70;;;2.28;;
23358;SDS011;11851;50.796;4.372;2022-08-04T18:59:17;12.73;;;2.83;;
23358;SDS011;11851;50.796;4.372;2022-08-04T19:01:42;10.25;;;2.58;;
23358;SDS011;11851;50.796;4.372;2022-08-04T19:04:09;9.05;;;2.65;;
23358;SDS011;11851;50.796;4.372;2022-08-04T19:06:35;11.15;;;2.95;;
23358;SDS011;11851;50.796;4.372;2022-08-04T19:09:02;9.77;;;2.95;;
23358;SDS011;11851;50.796;4.372;2022-08-04T19:11:29;5.10;;;2.80;;
23358;SDS011;11851;50.796;4.372;2022-08-04T19:13:57;12.23;;;3.35;;
23358;SDS011;11851;50.796;4.372;2022-08-04T19:16:24;12.50;;;3.45;;
23358;SDS011;11851;50.796;4.372;2022-08-04T19:18:51;12.55;;;3.90;;
23358;SDS011;11851;50.796;4.372;2022-08-04T19:21:16;9.40;;;3.80;;
23358;SDS011;11851;50.796;4.372;2022-08-04T19:23:42;13.57;;;3.83;;
23358;SDS011;11851;50.796;4.372;2022-08-04T19:26:08;11.77;;;3.95;;
23358;SDS011;11851;50.796;4.372;2022-08-04T19:28:34;9.18;;;3.30;;
23358;SDS011;11851;50.796;4.372;2022-08-04T19:31:01;9.05;;;3.58;;
23358;SDS011;11851;50.796;4.372;2022-08-04T19:33:31;10.83;;;3.70;;
23358;SDS011;11851;50.796;4.372;2022-08-04T19:35:57;13.68;;;5.55;;
23358;SDS011;11851;50.796;4.372;2022-08-04T19:38:23;16.83;;;5.10;;
23358;SDS011;11851;50.796;4.372;2022-08-04T19:40:49;15.75;;;3.90;;
23358;SDS011;11851;50.796;4.372;2022-08-04T19:43:14;11.77;;;4.10;;
23358;SDS011;11851;50.796;4.372;2022-08-04T19:45:40;12.15;;;4.55;;
23358;SDS011;11851;50.796;4.372;2022-08-04T19:48:07;15.75;;;4.65;;
23358;SDS011;11851;50.796;4.372;2022-08-04T19:50:32;10.13;;;4.05;;
23358;SDS011;11851;50.796;4.372;2022-08-04T19:52:58;11.55;;;4.43;;
23358;SDS011;11851;50.796;4.372;2022-08-04T19:55:24;10.00;;;4.00;;
23358;SDS011;11851;50.796;4.372;2022-08-04T19:57:50;8.80;;;4.18;;
23358;SDS011;11851;50.796;4.372;2022-08-04T20:00:17;9.82;;;4.60;;
23358;SDS011;11851;50.796;4.372;2022-08-04T20:02:44;12.90;;;5.03;;
23358;SDS011;11851;50.796;4.372;2022-08-04T20:05:10;12.70;;;4.88;;
23358;SDS011;11851;50.796;4.372;2022-08-04T20:07:37;10.95;;;4.30;;
23358;SDS011;11851;50.796;4.372;2022-08-04T20:10:03;10.20;;;3.95;;
23358;SDS011;11851;50.796;4.372;2022-08-04T20:12:31;11.95;;;4.22;;
23358;SDS011;11851;50.796;4.372;2022-08-04T20:14:57;9.85;;;4.78;;
23358;SDS011;11851;50.796;4.372;2022-08-04T20:17:24;13.40;;;4.88;;
23358;SDS011;11851;50.796;4.372;2022-08-04T20:19:50;11.02;;;4.68;;
23358;SDS011;11851;50.796;4.372;2022-08-04T20:22:15;9.52;;;4.20;;
23358;SDS011;11851;50.796;4.372;2022-08-04T20:24:44;10.10;;;4.40;;
23358;SDS011;11851;50.796;4.372;2022-08-04T20:27:11;11.90;;;4.88;;
23358;SDS011;11851;50.796;4.372;2022-08-04T20:29:38;12.10;;;4.60;;
23358;SDS011;11851;50.796;4.372;2022-08-04T20:32:04;11.38;;;5.10;;
23358;SDS011;11851;50.796;4.372;2022-08-04T20:34:30;8.13;;;4.45;;
23358;SDS011;11851;50.796;4.372;2022-08-04T20:36:56;11.02;;;4.78;;
23358;SDS011;11851;50.796;4.372;2022-08-04T20:39:21;13.10;;;4.65;;
23358;SDS011;11851;50.796;4.372;2022-08-04T20:41:47;12.70;;;5.07;;